createdAt,value
2023-01-29T00:00:00.141Z,96.70
2023-01-29T00:00:10.184Z,96.70
2023-01-29T00:00:20.104Z,96.70
2023-01-29T00:00:30.097Z,96.81
2023-01-29T00:00:40.099Z,96.92
2023-01-29T00:00:50.111Z,97.03
2023-01-29T00:01:00.107Z,97.03
2023-01-29T00:01:10.114Z,97.14
2023-01-29T00:01:20.106Z,97.14
2023-01-29T00:01:30.105Z,97.14
2023-01-29T00:01:40.174Z,97.14
2023-01-29T00:01:50.115Z,97.24
2023-01-29T00:02:00.168Z,97.24
2023-01-29T00:02:10.204Z,97.35
2023-01-29T00:02:20.194Z,97.45
2023-01-29T00:02:30.109Z,97.56
2023-01-29T00:02:40.112Z,97.67
2023-01-29T00:02:50.117Z,97.78
2023-01-29T00:03:00.178Z,97.88
2023-01-29T00:03:10.144Z,97.88
2023-01-29T00:03:20.209Z,97.88
2023-01-29T00:03:30.114Z,97.78
2023-01-29T00:03:40.113Z,97.78
2023-01-29T00:03:50.121Z,97.67
2023-01-29T00:04:00.144Z,97.67
2023-01-29T00:04:10.124Z,97.67
2023-01-29T00:04:20.118Z,97.56
2023-01-29T00:04:30.124Z,97.45
2023-01-29T00:04:40.123Z,97.35
2023-01-29T00:04:50.119Z,97.24
2023-01-29T00:05:10.017Z,97.14
2023-01-29T00:05:26.510Z,97.14
2023-01-29T00:05:27.826Z,97.14
2023-01-29T00:05:31.135Z,97.03
2023-01-29T00:05:40.125Z,97.03
2023-01-29T00:05:50.125Z,96.92
2023-01-29T00:06:00.124Z,96.92
2023-01-29T00:06:10.125Z,96.92
2023-01-29T00:06:20.142Z,96.92
2023-01-29T00:06:30.127Z,96.92
2023-01-29T00:06:40.133Z,96.81
2023-01-29T00:06:50.128Z,96.81
2023-01-29T00:07:00.142Z,96.70
2023-01-29T00:07:10.158Z,96.60
2023-01-29T00:07:20.144Z,96.49
2023-01-29T00:07:30.135Z,96.39
2023-01-29T00:07:40.136Z,96.39
2023-01-29T00:07:50.136Z,96.49
2023-01-29T00:08:00.140Z,96.60
2023-01-29T00:08:10.147Z,96.60
2023-01-29T00:08:20.136Z,96.60
2023-01-29T00:08:30.147Z,96.70
2023-01-29T00:08:40.139Z,96.70
2023-01-29T00:08:50.144Z,96.81
2023-01-29T00:09:00.143Z,96.81
2023-01-29T00:09:10.157Z,96.81
2023-01-29T00:09:20.146Z,97.03
2023-01-29T00:09:30.152Z,97.03
2023-01-29T00:09:40.174Z,97.14
2023-01-29T00:09:50.150Z,97.03
2023-01-29T00:10:00.148Z,97.03
2023-01-29T00:10:10.164Z,97.03
2023-01-29T00:10:20.165Z,97.14
2023-01-29T00:10:30.152Z,97.14
2023-01-29T00:10:40.152Z,97.24
2023-01-29T00:10:50.154Z,97.24
2023-01-29T00:11:00.152Z,97.24
2023-01-29T00:11:10.168Z,97.24
2023-01-29T00:11:20.157Z,97.24
2023-01-29T00:11:30.155Z,97.35
2023-01-29T00:11:40.157Z,97.35
2023-01-29T00:11:50.164Z,97.35
2023-01-29T00:12:00.162Z,97.35
2023-01-29T00:12:10.187Z,97.45
2023-01-29T00:12:20.164Z,97.45
2023-01-29T00:12:30.166Z,97.56
2023-01-29T00:12:40.161Z,97.56
2023-01-29T00:12:50.165Z,97.45
2023-01-29T00:13:00.167Z,97.45
2023-01-29T00:13:10.175Z,97.45
2023-01-29T00:13:20.164Z,97.45
2023-01-29T00:13:30.165Z,97.45
2023-01-29T00:13:40.177Z,97.45
2023-01-29T00:13:51.061Z,97.45
2023-01-29T00:14:00.198Z,97.35
2023-01-29T00:14:10.196Z,97.35
2023-01-29T00:14:20.189Z,97.24
2023-01-29T00:14:30.172Z,97.24
2023-01-29T00:14:40.171Z,97.24
2023-01-29T00:14:50.174Z,97.24
2023-01-29T00:15:00.179Z,97.24
2023-01-29T00:15:10.190Z,97.24
2023-01-29T00:15:20.182Z,97.35
2023-01-29T00:15:30.181Z,97.35
2023-01-29T00:15:40.184Z,97.35
2023-01-29T00:15:50.182Z,97.45
2023-01-29T00:16:00.199Z,97.45
2023-01-29T00:16:10.210Z,97.45
2023-01-29T00:16:20.184Z,97.56
2023-01-29T00:16:30.186Z,97.67
2023-01-29T00:16:40.266Z,97.67
2023-01-29T00:16:50.226Z,97.67
2023-01-29T00:17:00.259Z,97.67
2023-01-29T00:17:10.342Z,97.56
2023-01-29T00:17:20.244Z,97.45
2023-01-29T00:17:30.185Z,97.35
2023-01-29T00:17:40.178Z,97.24
2023-01-29T00:17:50.191Z,97.24
2023-01-29T00:18:00.220Z,97.24
2023-01-29T00:18:10.202Z,97.14
2023-01-29T00:18:20.193Z,97.14
2023-01-29T00:18:30.190Z,97.14
2023-01-29T00:18:40.194Z,97.03
2023-01-29T00:18:50.196Z,97.14
2023-01-29T00:19:00.194Z,97.14
2023-01-29T00:19:10.234Z,97.24
2023-01-29T00:19:20.203Z,97.24
2023-01-29T00:19:30.205Z,97.35
2023-01-29T00:19:40.202Z,97.45
2023-01-29T00:19:50.197Z,97.56
2023-01-29T00:20:00.202Z,97.67
2023-01-29T00:20:10.217Z,97.78
2023-01-29T00:20:20.283Z,97.67
2023-01-29T00:20:30.204Z,97.67
2023-01-29T00:20:40.202Z,97.67
2023-01-29T00:20:50.205Z,97.67
2023-01-29T00:21:00.189Z,97.67
2023-01-29T00:21:10.219Z,97.56
2023-01-29T00:21:20.209Z,97.45
2023-01-29T00:21:30.214Z,97.35
2023-01-29T00:21:40.207Z,97.24
2023-01-29T00:21:50.215Z,97.24
2023-01-29T00:22:00.212Z,97.14
2023-01-29T00:22:10.262Z,97.14
2023-01-29T00:22:20.214Z,97.14
2023-01-29T00:22:30.226Z,97.14
2023-01-29T00:22:40.214Z,97.24
2023-01-29T00:22:50.216Z,97.24
2023-01-29T00:23:00.215Z,97.35
2023-01-29T00:23:10.226Z,97.35
2023-01-29T00:23:20.221Z,97.35
2023-01-29T00:23:30.221Z,97.35
2023-01-29T00:23:40.223Z,97.35
2023-01-29T00:23:50.222Z,97.24
2023-01-29T00:24:00.298Z,97.14
2023-01-29T00:24:10.244Z,97.14
2023-01-29T00:24:20.316Z,97.14
2023-01-29T00:24:30.332Z,97.14
2023-01-29T00:24:40.226Z,97.14
2023-01-29T00:24:50.231Z,97.24
2023-01-29T00:25:00.230Z,97.45
2023-01-29T00:25:10.244Z,97.67
2023-01-29T00:25:20.241Z,97.88
2023-01-29T00:25:30.233Z,97.99
2023-01-29T00:25:40.250Z,98.21
2023-01-29T00:25:50.259Z,98.32
2023-01-29T00:26:00.235Z,98.42
2023-01-29T00:26:10.244Z,98.53
2023-01-29T00:26:20.248Z,98.53
2023-01-29T00:26:30.242Z,98.63
2023-01-29T00:26:40.252Z,98.63
2023-01-29T00:26:50.247Z,98.74
2023-01-29T00:27:00.248Z,98.74
2023-01-29T00:27:10.252Z,98.74
2023-01-29T00:27:20.259Z,98.85
2023-01-29T00:27:30.242Z,98.85
2023-01-29T00:27:40.268Z,98.96
2023-01-29T00:27:50.246Z,98.96
2023-01-29T00:28:00.247Z,99.06
2023-01-29T00:28:10.255Z,99.06
2023-01-29T00:28:20.258Z,99.27
2023-01-29T00:28:30.246Z,99.34
2023-01-29T00:28:40.267Z,99.34
2023-01-29T00:28:50.252Z,99.44
2023-01-29T00:29:00.261Z,99.55
2023-01-29T00:29:10.264Z,99.66
2023-01-29T00:29:20.260Z,99.66
2023-01-29T00:29:30.255Z,99.66
2023-01-29T00:29:40.266Z,99.55
2023-01-29T00:29:50.261Z,99.44
2023-01-29T00:30:00.257Z,99.34
2023-01-29T00:30:10.266Z,99.34
2023-01-29T00:30:20.476Z,99.34
2023-01-29T00:30:30.258Z,99.34
2023-01-29T00:30:40.269Z,99.44
2023-01-29T00:30:50.262Z,99.66
2023-01-29T00:31:00.364Z,99.77
2023-01-29T00:31:10.327Z,99.87
2023-01-29T00:31:20.395Z,99.99
2023-01-29T00:31:30.366Z,99.99
2023-01-29T00:31:40.357Z,99.99
2023-01-29T00:31:50.433Z,99.99
2023-01-29T00:32:00.527Z,99.99
2023-01-29T00:32:10.356Z,99.99
2023-01-29T00:32:20.400Z,99.99
2023-01-29T00:32:30.271Z,99.99
2023-01-29T00:32:40.272Z,99.99
2023-01-29T00:32:50.269Z,99.99
2023-01-29T00:33:00.283Z,99.99
2023-01-29T00:33:10.270Z,99.99
2023-01-29T00:33:20.269Z,99.99
2023-01-29T00:33:30.271Z,99.99
2023-01-29T00:33:40.274Z,99.99
2023-01-29T00:33:50.348Z,99.99
2023-01-29T00:34:00.292Z,99.99
2023-01-29T00:34:10.283Z,99.99
2023-01-29T00:34:20.284Z,99.99
2023-01-29T00:34:30.287Z,99.99
2023-01-29T00:34:40.324Z,99.99
2023-01-29T00:34:50.285Z,99.99
2023-01-29T00:35:00.283Z,99.99
2023-01-29T00:35:10.285Z,99.99
2023-01-29T00:35:20.290Z,99.99
2023-01-29T00:35:30.294Z,99.99
2023-01-29T00:35:40.291Z,99.99
2023-01-29T00:35:50.289Z,99.99
2023-01-29T00:36:00.288Z,99.83
2023-01-29T00:36:10.296Z,99.73
2023-01-29T00:36:20.324Z,99.40
2023-01-29T00:36:30.298Z,99.19
2023-01-29T00:36:40.301Z,98.86
2023-01-29T00:36:50.295Z,98.65
2023-01-29T00:37:00.295Z,98.44
2023-01-29T00:37:10.305Z,98.33
2023-01-29T00:37:20.301Z,98.22
2023-01-29T00:37:30.310Z,98.22
2023-01-29T00:37:40.326Z,98.12
2023-01-29T00:37:50.297Z,98.12
2023-01-29T00:38:00.304Z,98.12
2023-01-29T00:38:10.312Z,98.12
2023-01-29T00:38:20.310Z,98.01
2023-01-29T00:38:30.304Z,97.91
2023-01-29T00:38:40.303Z,97.91
2023-01-29T00:38:50.303Z,97.91
2023-01-29T00:39:00.303Z,97.80
2023-01-29T00:39:10.305Z,97.69
2023-01-29T00:39:20.305Z,97.58
2023-01-29T00:39:45.990Z,97.69
2023-01-29T00:39:47.813Z,97.69
2023-01-29T00:39:51.311Z,97.69
2023-01-29T00:40:00.325Z,97.69
2023-01-29T00:40:10.309Z,97.69
2023-01-29T00:40:20.312Z,97.58
2023-01-29T00:40:30.317Z,97.47
2023-01-29T00:40:40.313Z,97.37
2023-01-29T00:40:50.324Z,97.37
2023-01-29T00:41:00.324Z,97.26
2023-01-29T00:41:10.313Z,97.20
2023-01-29T00:41:20.315Z,97.05
2023-01-29T00:41:30.319Z,97.09
2023-01-29T00:41:40.328Z,97.05
2023-01-29T00:41:50.319Z,97.09
2023-01-29T00:42:00.331Z,97.20
2023-01-29T00:42:10.322Z,97.31
2023-01-29T00:42:20.323Z,97.37
2023-01-29T00:42:30.331Z,97.58
2023-01-29T00:42:40.323Z,97.69
2023-01-29T00:42:50.334Z,97.91
2023-01-29T00:43:00.325Z,98.22
2023-01-29T00:43:10.326Z,98.55
2023-01-29T00:43:20.354Z,99.19
2023-01-29T00:43:30.329Z,99.94
2023-01-29T00:43:40.327Z,99.99
2023-01-29T00:43:50.333Z,99.99
2023-01-29T00:44:00.329Z,99.99
2023-01-29T00:44:10.339Z,99.99
2023-01-29T00:44:20.344Z,99.99
2023-01-29T00:44:30.330Z,99.99
2023-01-29T00:44:40.330Z,99.99
2023-01-29T00:44:50.331Z,99.99
2023-01-29T00:45:00.338Z,99.99
2023-01-29T00:45:10.344Z,99.99
2023-01-29T00:45:20.334Z,99.99
2023-01-29T00:45:30.335Z,99.99
2023-01-29T00:45:40.360Z,99.99
2023-01-29T00:45:50.338Z,99.99
2023-01-29T00:46:00.345Z,99.99
2023-01-29T00:46:10.353Z,99.99
2023-01-29T00:46:20.386Z,99.99
2023-01-29T00:46:30.349Z,99.99
2023-01-29T00:46:40.371Z,99.99
2023-01-29T00:46:50.389Z,99.99
2023-01-29T00:47:00.342Z,99.99
2023-01-29T00:47:10.342Z,99.99
2023-01-29T00:47:20.356Z,99.99
2023-01-29T00:47:30.355Z,99.99
2023-01-29T00:47:40.354Z,99.99
2023-01-29T00:47:50.347Z,99.99
2023-01-29T00:48:00.348Z,99.99
2023-01-29T00:48:10.348Z,99.99
2023-01-29T00:48:20.349Z,99.99
2023-01-29T00:48:30.356Z,99.99
2023-01-29T00:48:40.350Z,99.99
2023-01-29T00:48:50.351Z,99.99
2023-01-29T00:49:00.948Z,99.99
2023-01-29T00:49:10.359Z,99.99
2023-01-29T00:49:20.357Z,99.99
2023-01-29T00:49:30.399Z,99.99
2023-01-29T00:49:40.376Z,99.99
2023-01-29T00:49:50.357Z,99.99
2023-01-29T00:50:00.372Z,99.99
2023-01-29T00:50:10.371Z,99.99
2023-01-29T00:50:20.370Z,99.99
2023-01-29T00:50:30.379Z,99.99
2023-01-29T00:50:40.377Z,99.99
2023-01-29T00:50:50.362Z,99.99
2023-01-29T00:51:00.378Z,99.99
2023-01-29T00:51:10.364Z,99.99
2023-01-29T00:51:20.383Z,99.99
2023-01-29T00:51:30.367Z,99.99
2023-01-29T00:51:40.379Z,99.99
2023-01-29T00:51:50.371Z,99.99
2023-01-29T00:52:00.386Z,99.99
2023-01-29T00:52:10.370Z,99.99
2023-01-29T00:52:20.387Z,99.99
2023-01-29T00:52:30.374Z,99.99
2023-01-29T00:52:40.375Z,99.99
2023-01-29T00:52:50.385Z,99.99
2023-01-29T00:53:00.378Z,99.99
2023-01-29T00:53:10.379Z,99.99
2023-01-29T00:53:20.376Z,99.99
2023-01-29T00:53:30.386Z,99.99
2023-01-29T00:53:40.389Z,99.99
2023-01-29T00:53:50.365Z,99.99
2023-01-29T00:54:00.380Z,99.99
2023-01-29T00:54:10.380Z,99.99
2023-01-29T00:54:20.380Z,99.99
2023-01-29T00:54:32.418Z,99.87
2023-01-29T00:54:40.388Z,99.76
2023-01-29T00:54:50.384Z,99.55
2023-01-29T00:55:00.421Z,99.55
2023-01-29T00:55:10.406Z,99.33
2023-01-29T00:55:20.385Z,99.22
2023-01-29T00:55:30.397Z,99.12
2023-01-29T00:55:40.393Z,99.01
2023-01-29T00:55:50.393Z,99.01
2023-01-29T00:56:00.407Z,99.01
2023-01-29T00:56:10.393Z,99.01
2023-01-29T00:56:20.398Z,99.01
2023-01-29T00:56:30.404Z,99.01
2023-01-29T00:56:40.395Z,99.01
2023-01-29T00:56:50.399Z,99.12
2023-01-29T00:57:00.404Z,99.12
2023-01-29T00:57:10.407Z,99.22
2023-01-29T00:57:20.418Z,99.22
2023-01-29T00:57:30.430Z,99.12
2023-01-29T00:57:40.416Z,99.01
2023-01-29T00:57:50.403Z,99.01
2023-01-29T00:58:00.422Z,98.91
2023-01-29T00:58:10.404Z,98.80
2023-01-29T00:58:20.410Z,98.80
2023-01-29T00:58:30.415Z,98.69
2023-01-29T00:58:40.408Z,98.80
2023-01-29T00:58:50.410Z,98.80
2023-01-29T00:59:00.408Z,98.80
2023-01-29T00:59:10.408Z,98.80
2023-01-29T00:59:20.425Z,98.80
2023-01-29T00:59:30.410Z,98.69
2023-01-29T00:59:40.412Z,98.69
2023-01-29T00:59:50.422Z,98.58
2023-01-29T01:00:00.422Z,98.58
2023-01-29T01:00:10.427Z,98.48
2023-01-29T01:00:20.413Z,98.37
2023-01-29T01:00:30.564Z,98.27
2023-01-29T01:00:40.521Z,98.16
2023-01-29T01:00:50.469Z,98.16
2023-01-29T01:01:00.485Z,98.05
2023-01-29T01:01:10.450Z,98.10
2023-01-29T01:01:20.434Z,97.94
2023-01-29T01:01:30.419Z,97.94
2023-01-29T01:01:40.442Z,97.94
2023-01-29T01:01:50.468Z,98.05
2023-01-29T01:02:00.514Z,98.16
2023-01-29T01:02:10.489Z,98.27
2023-01-29T01:02:20.503Z,98.48
2023-01-29T01:02:30.426Z,98.80
2023-01-29T01:02:40.429Z,99.01
2023-01-29T01:02:50.445Z,99.22
2023-01-29T01:03:00.428Z,99.44
2023-01-29T01:03:10.430Z,99.44
2023-01-29T01:03:20.440Z,99.33
2023-01-29T01:03:30.433Z,99.22
2023-01-29T01:03:40.446Z,99.12
2023-01-29T01:03:50.436Z,98.91
2023-01-29T01:04:00.436Z,98.80
2023-01-29T01:04:10.435Z,98.58
2023-01-29T01:04:20.451Z,98.48
2023-01-29T01:04:30.445Z,98.27
2023-01-29T01:04:40.444Z,98.16
2023-01-29T01:04:50.444Z,98.10
2023-01-29T01:05:00.440Z,97.99
2023-01-29T01:05:10.449Z,97.77
2023-01-29T01:05:20.450Z,97.67
2023-01-29T01:05:30.459Z,97.56
2023-01-29T01:05:40.453Z,97.56
2023-01-29T01:05:50.446Z,97.56
2023-01-29T01:06:00.447Z,97.45
2023-01-29T01:06:10.465Z,97.45
2023-01-29T01:06:20.445Z,97.34
2023-01-29T01:06:30.461Z,97.34
2023-01-29T01:06:40.448Z,97.24
2023-01-29T01:06:50.449Z,97.13
2023-01-29T01:07:00.451Z,97.13
2023-01-29T01:07:28.628Z,97.03
2023-01-29T01:07:38.620Z,97.03
2023-01-29T01:07:48.622Z,97.03
2023-01-29T01:07:58.621Z,97.03
2023-01-29T01:08:08.631Z,97.13
2023-01-29T01:08:18.631Z,97.13
2023-01-29T01:08:28.632Z,97.24
2023-01-29T01:08:38.641Z,97.24
2023-01-29T01:08:48.623Z,97.34
2023-01-29T01:08:58.622Z,97.45
2023-01-29T01:09:08.630Z,97.67
2023-01-29T01:09:18.629Z,97.88
2023-01-29T01:09:28.626Z,98.10
2023-01-29T01:09:38.638Z,98.31
2023-01-29T01:09:48.625Z,98.52
2023-01-29T01:09:58.627Z,98.74
2023-01-29T01:10:08.642Z,99.05
2023-01-29T01:10:18.805Z,99.27
2023-01-29T01:10:28.649Z,99.48
2023-01-29T01:10:38.646Z,99.59
2023-01-29T01:10:48.635Z,99.59
2023-01-29T01:10:58.640Z,99.59
2023-01-29T01:11:08.637Z,99.59
2023-01-29T01:11:18.646Z,99.48
2023-01-29T01:11:29.528Z,99.27
2023-01-29T01:11:38.646Z,99.16
2023-01-29T01:11:48.654Z,99.05
2023-01-29T01:11:58.645Z,98.84
2023-01-29T01:12:08.651Z,98.63
2023-01-29T01:12:18.658Z,98.52
2023-01-29T01:12:28.644Z,98.31
2023-01-29T01:12:38.637Z,98.10
2023-01-29T01:12:48.652Z,97.99
2023-01-29T01:12:59.524Z,97.77
2023-01-29T01:13:08.642Z,97.56
2023-01-29T01:13:18.685Z,97.56
2023-01-29T01:13:28.645Z,97.56
2023-01-29T01:13:38.649Z,97.77
2023-01-29T01:13:48.657Z,97.99
2023-01-29T01:13:58.647Z,98.10
2023-01-29T01:14:08.661Z,98.31
2023-01-29T01:14:18.667Z,98.41
2023-01-29T01:14:28.648Z,98.52
2023-01-29T01:14:39.514Z,98.52
2023-01-29T01:14:48.660Z,98.52
2023-01-29T01:14:58.652Z,98.52
2023-01-29T01:15:08.655Z,98.63
2023-01-29T01:15:18.683Z,98.52
2023-01-29T01:15:28.661Z,98.52
2023-01-29T01:15:38.677Z,98.52
2023-01-29T01:15:48.672Z,98.41
2023-01-29T01:15:58.724Z,98.31
2023-01-29T01:16:08.667Z,98.31
2023-01-29T01:16:18.730Z,98.20
2023-01-29T01:16:28.767Z,97.99
2023-01-29T01:16:38.741Z,97.99
2023-01-29T01:16:48.671Z,97.88
2023-01-29T01:16:58.661Z,97.77
2023-01-29T01:17:08.674Z,97.67
2023-01-29T01:17:18.692Z,97.56
2023-01-29T01:17:28.675Z,97.56
2023-01-29T01:17:38.663Z,97.45
2023-01-29T01:17:48.686Z,97.45
2023-01-29T01:17:58.671Z,97.34
2023-01-29T01:18:08.697Z,97.24
2023-01-29T01:18:18.667Z,97.24
2023-01-29T01:18:28.671Z,97.13
2023-01-29T01:18:38.673Z,97.13
2023-01-29T01:18:48.669Z,97.03
2023-01-29T01:18:58.688Z,97.03
2023-01-29T01:19:08.685Z,97.03
2023-01-29T01:19:18.681Z,96.92
2023-01-29T01:19:28.679Z,96.92
2023-01-29T01:19:38.687Z,96.81
2023-01-29T01:19:49.569Z,96.75
2023-01-29T01:19:58.688Z,96.64
2023-01-29T01:20:08.724Z,96.53
2023-01-29T01:20:18.997Z,96.53
2023-01-29T01:20:28.690Z,96.53
2023-01-29T01:20:38.683Z,96.64
2023-01-29T01:20:48.684Z,96.64
2023-01-29T01:20:58.711Z,96.64
2023-01-29T01:21:08.714Z,96.64
2023-01-29T01:21:18.675Z,96.64
2023-01-29T01:21:28.698Z,96.64
2023-01-29T01:21:38.690Z,96.53
2023-01-29T01:21:48.694Z,96.64
2023-01-29T01:21:58.692Z,96.64
2023-01-29T01:22:08.723Z,96.53
2023-01-29T01:22:18.692Z,96.53
2023-01-29T01:22:28.700Z,96.64
2023-01-29T01:22:39.563Z,96.64
2023-01-29T01:22:48.693Z,96.64
2023-01-29T01:22:58.700Z,96.43
2023-01-29T01:23:08.701Z,96.32
2023-01-29T01:23:18.697Z,96.11
2023-01-29T01:23:28.721Z,96.11
2023-01-29T01:23:38.704Z,96.11
2023-01-29T01:23:48.705Z,96.11
2023-01-29T01:23:58.725Z,96.22
2023-01-29T01:24:08.761Z,96.32
2023-01-29T01:24:18.813Z,96.32
2023-01-29T01:24:28.764Z,96.43
2023-01-29T01:24:38.730Z,96.32
2023-01-29T01:24:48.744Z,96.32
2023-01-29T01:24:58.715Z,96.32
2023-01-29T01:25:08.714Z,96.43
2023-01-29T01:25:18.752Z,96.43
2023-01-29T01:25:28.742Z,96.43
2023-01-29T01:25:38.714Z,96.43
2023-01-29T01:25:48.720Z,96.43
2023-01-29T01:25:58.732Z,96.43
2023-01-29T01:26:08.710Z,96.43
2023-01-29T01:26:18.741Z,96.32
2023-01-29T01:26:28.730Z,96.32
2023-01-29T01:26:38.716Z,96.32
2023-01-29T01:26:48.725Z,96.32
2023-01-29T01:26:58.728Z,96.32
2023-01-29T01:27:08.727Z,96.32
2023-01-29T01:27:18.756Z,96.36
2023-01-29T01:27:28.757Z,96.32
2023-01-29T01:27:38.722Z,96.36
2023-01-29T01:27:48.726Z,96.36
2023-01-29T01:28:00.577Z,96.26
2023-01-29T01:28:08.754Z,96.26
2023-01-29T01:28:18.744Z,96.15
2023-01-29T01:28:28.748Z,95.94
2023-01-29T01:28:38.755Z,95.83
2023-01-29T01:28:48.733Z,95.83
2023-01-29T01:28:58.737Z,95.72
2023-01-29T01:29:08.767Z,95.72
2023-01-29T01:29:19.584Z,95.61
2023-01-29T01:29:28.734Z,95.61
2023-01-29T01:29:38.735Z,95.51
2023-01-29T01:29:48.763Z,95.40
2023-01-29T01:29:58.738Z,95.40
2023-01-29T01:30:08.744Z,95.51
2023-01-29T01:30:25.730Z,95.51
2023-01-29T01:30:28.737Z,95.61
2023-01-29T01:30:38.796Z,95.72
2023-01-29T01:30:48.755Z,95.83
2023-01-29T01:30:58.795Z,95.83
2023-01-29T01:31:08.898Z,95.94
2023-01-29T01:31:18.887Z,95.94
2023-01-29T01:31:28.854Z,95.94
2023-01-29T01:31:38.800Z,95.94
2023-01-29T01:31:48.773Z,96.04
2023-01-29T01:31:58.790Z,96.15
2023-01-29T01:32:08.748Z,96.26
2023-01-29T01:32:18.762Z,96.36
2023-01-29T01:32:28.759Z,96.47
2023-01-29T01:32:38.750Z,96.47
2023-01-29T01:32:48.753Z,96.36
2023-01-29T01:32:58.747Z,96.36
2023-01-29T01:33:08.760Z,96.47
2023-01-29T01:33:18.767Z,96.47
2023-01-29T01:33:28.755Z,96.58
2023-01-29T01:33:38.756Z,96.69
2023-01-29T01:33:48.757Z,96.79
2023-01-29T01:33:58.765Z,96.90
2023-01-29T01:34:08.758Z,96.90
2023-01-29T01:34:18.765Z,97.00
2023-01-29T01:34:28.773Z,97.11
2023-01-29T01:34:38.767Z,97.11
2023-01-29T01:34:48.764Z,97.22
2023-01-29T01:34:58.763Z,97.22
2023-01-29T01:35:08.775Z,97.22
2023-01-29T01:35:18.788Z,97.22
2023-01-29T01:35:28.765Z,97.22
2023-01-29T01:35:38.783Z,97.22
2023-01-29T01:35:49.581Z,97.22
2023-01-29T01:35:58.766Z,97.22
2023-01-29T01:36:08.766Z,97.33
2023-01-29T01:36:18.796Z,97.33
2023-01-29T01:36:28.777Z,97.33
2023-01-29T01:36:38.771Z,97.33
2023-01-29T01:36:48.779Z,97.43
2023-01-29T01:36:58.787Z,97.43
2023-01-29T01:37:08.791Z,97.54
2023-01-29T01:37:18.788Z,97.54
2023-01-29T01:37:28.786Z,97.64
2023-01-29T01:37:38.779Z,97.64
2023-01-29T01:37:48.799Z,97.75
2023-01-29T01:37:58.777Z,97.86
2023-01-29T01:38:08.793Z,97.86
2023-01-29T01:38:18.787Z,97.97
2023-01-29T01:38:28.780Z,98.07
2023-01-29T01:38:38.782Z,98.18
2023-01-29T01:38:48.793Z,98.29
2023-01-29T01:38:58.782Z,98.50
2023-01-29T01:39:08.788Z,98.61
2023-01-29T01:39:18.785Z,98.61
2023-01-29T01:39:28.795Z,98.61
2023-01-29T01:39:38.787Z,98.72
2023-01-29T01:39:48.788Z,98.82
2023-01-29T01:39:58.791Z,98.93
2023-01-29T01:40:08.793Z,99.04
2023-01-29T01:40:19.146Z,99.15
2023-01-29T01:40:28.794Z,99.25
2023-01-29T01:40:38.798Z,99.36
2023-01-29T01:40:48.794Z,99.46
2023-01-29T01:40:58.796Z,99.57
2023-01-29T01:41:08.805Z,99.68
2023-01-29T01:41:18.797Z,99.68
2023-01-29T01:41:28.801Z,99.68
2023-01-29T01:41:38.803Z,99.68
2023-01-29T01:41:48.799Z,99.68
2023-01-29T01:41:58.798Z,99.57
2023-01-29T01:42:08.813Z,99.57
2023-01-29T01:42:18.804Z,99.46
2023-01-29T01:42:28.813Z,99.36
2023-01-29T01:42:38.807Z,99.25
2023-01-29T01:42:48.816Z,99.04
2023-01-29T01:42:58.813Z,98.93
2023-01-29T01:43:08.820Z,98.93
2023-01-29T01:43:18.807Z,98.82
2023-01-29T01:43:28.806Z,98.82
2023-01-29T01:43:38.812Z,98.93
2023-01-29T01:43:48.836Z,98.88
2023-01-29T01:43:58.806Z,98.93
2023-01-29T01:44:08.806Z,98.99
2023-01-29T01:44:18.809Z,99.21
2023-01-29T01:44:28.813Z,99.32
2023-01-29T01:44:38.811Z,99.53
2023-01-29T01:44:48.832Z,99.63
2023-01-29T01:44:58.839Z,99.74
2023-01-29T01:45:08.813Z,99.74
2023-01-29T01:45:18.814Z,99.74
2023-01-29T01:45:28.831Z,99.74
2023-01-29T01:45:38.850Z,99.63
2023-01-29T01:45:48.851Z,99.53
2023-01-29T01:45:58.836Z,99.53
2023-01-29T01:46:08.893Z,99.53
2023-01-29T01:46:18.821Z,99.53
2023-01-29T01:46:28.830Z,99.53
2023-01-29T01:46:38.834Z,99.53
2023-01-29T01:46:48.831Z,99.42
2023-01-29T01:46:58.825Z,99.42
2023-01-29T01:47:08.827Z,99.42
2023-01-29T01:47:18.825Z,99.32
2023-01-29T01:47:28.825Z,99.32
2023-01-29T01:47:38.836Z,99.21
2023-01-29T01:47:48.846Z,99.10
2023-01-29T01:47:58.833Z,98.99
2023-01-29T01:48:08.843Z,98.99
2023-01-29T01:48:18.835Z,98.88
2023-01-29T01:48:28.834Z,98.88
2023-01-29T01:48:38.834Z,98.78
2023-01-29T01:48:48.839Z,98.78
2023-01-29T01:48:58.834Z,98.67
2023-01-29T01:49:08.835Z,98.46
2023-01-29T01:49:18.836Z,98.35
2023-01-29T01:49:28.838Z,98.24
2023-01-29T01:49:38.841Z,98.14
2023-01-29T01:49:48.851Z,98.03
2023-01-29T01:49:58.841Z,97.97
2023-01-29T01:50:08.840Z,97.86
2023-01-29T01:50:19.017Z,97.75
2023-01-29T01:50:28.844Z,97.64
2023-01-29T01:50:38.848Z,97.50
2023-01-29T01:50:48.861Z,97.43
2023-01-29T01:50:58.843Z,97.43
2023-01-29T01:51:08.849Z,97.33
2023-01-29T01:51:18.850Z,97.33
2023-01-29T01:51:28.851Z,97.33
2023-01-29T01:51:38.870Z,97.22
2023-01-29T01:51:48.882Z,97.11
2023-01-29T01:51:58.853Z,97.00
2023-01-29T01:52:08.857Z,97.00
2023-01-29T01:52:18.863Z,96.90
2023-01-29T01:52:28.859Z,97.00
2023-01-29T01:52:38.862Z,97.00
2023-01-29T01:52:48.864Z,97.00
2023-01-29T01:52:58.860Z,97.00
2023-01-29T01:53:08.879Z,97.00
2023-01-29T01:53:18.868Z,97.00
2023-01-29T01:53:28.860Z,97.11
2023-01-29T01:53:38.871Z,97.22
2023-01-29T01:53:48.864Z,97.33
2023-01-29T01:53:58.869Z,97.33
2023-01-29T01:54:08.876Z,97.43
2023-01-29T01:54:18.868Z,97.43
2023-01-29T01:54:28.873Z,97.43
2023-01-29T01:54:38.869Z,97.43
2023-01-29T01:54:48.886Z,97.43
2023-01-29T01:54:58.873Z,97.43
2023-01-29T01:55:08.875Z,97.43
2023-01-29T01:55:18.874Z,97.43
2023-01-29T01:55:28.875Z,97.43
2023-01-29T01:55:38.881Z,97.43
2023-01-29T01:55:48.904Z,97.43
2023-01-29T01:55:58.879Z,97.43
2023-01-29T01:56:08.885Z,97.43
2023-01-29T01:56:18.889Z,97.39
2023-01-29T01:56:28.880Z,97.43
2023-01-29T01:56:38.882Z,97.50
2023-01-29T01:56:48.881Z,97.54
2023-01-29T01:56:58.887Z,97.64
2023-01-29T01:57:08.886Z,97.54
2023-01-29T01:57:18.886Z,97.54
2023-01-29T01:57:28.887Z,97.54
2023-01-29T01:57:38.916Z,97.43
2023-01-29T01:57:48.916Z,97.39
2023-01-29T01:57:58.894Z,97.54
2023-01-29T01:58:08.890Z,97.64
2023-01-29T01:58:18.889Z,97.64
2023-01-29T01:58:28.899Z,97.60
2023-01-29T01:58:38.889Z,97.71
2023-01-29T01:58:48.894Z,97.71
2023-01-29T01:58:58.910Z,97.71
2023-01-29T01:59:08.893Z,97.71
2023-01-29T01:59:18.900Z,97.75
2023-01-29T01:59:28.894Z,97.64
2023-01-29T01:59:38.896Z,97.64
2023-01-29T01:59:48.922Z,97.54
2023-01-29T01:59:58.913Z,97.33
2023-01-29T02:00:08.897Z,97.22
2023-01-29T02:00:18.900Z,97.11
2023-01-29T02:00:28.911Z,96.90
2023-01-29T02:00:38.991Z,96.79
2023-01-29T02:00:48.921Z,96.79
2023-01-29T02:00:58.980Z,96.79
2023-01-29T02:01:08.969Z,96.79
2023-01-29T02:01:18.973Z,97.00
2023-01-29T02:01:29.000Z,97.22
2023-01-29T02:01:38.912Z,97.43
2023-01-29T02:01:48.917Z,97.75
2023-01-29T02:01:58.997Z,98.18
2023-01-29T02:02:08.977Z,98.50
2023-01-29T02:02:19.016Z,98.93
2023-01-29T02:02:28.946Z,99.21
2023-01-29T02:02:38.930Z,99.53
2023-01-29T02:02:48.926Z,99.74
2023-01-29T02:02:58.920Z,99.85
2023-01-29T02:03:08.923Z,99.96
2023-01-29T02:03:18.922Z,99.96
2023-01-29T02:03:28.921Z,99.99
2023-01-29T02:03:38.940Z,99.99
2023-01-29T02:03:48.934Z,99.99
2023-01-29T02:03:58.938Z,99.99
2023-01-29T02:04:08.938Z,99.99
2023-01-29T02:04:18.940Z,99.99
2023-01-29T02:04:28.928Z,99.99
2023-01-29T02:04:38.933Z,99.99
2023-01-29T02:04:48.939Z,99.99
2023-01-29T02:04:58.932Z,99.99
2023-01-29T02:05:08.934Z,99.99
2023-01-29T02:05:18.934Z,99.99
2023-01-29T02:05:28.948Z,99.99
2023-01-29T02:05:38.935Z,99.99
2023-01-29T02:05:48.939Z,99.99
2023-01-29T02:05:58.938Z,99.96
2023-01-29T02:06:08.936Z,99.85
2023-01-29T02:06:18.954Z,99.74
2023-01-29T02:06:28.948Z,99.63
2023-01-29T02:06:38.949Z,99.63
2023-01-29T02:06:48.945Z,99.53
2023-01-29T02:06:58.945Z,99.42
2023-01-29T02:07:08.958Z,99.21
2023-01-29T02:07:18.956Z,99.10
2023-01-29T02:07:28.956Z,98.99
2023-01-29T02:07:38.964Z,98.88
2023-01-29T02:07:48.953Z,98.78
2023-01-29T02:07:58.949Z,98.67
2023-01-29T02:08:08.967Z,98.57
2023-01-29T02:08:18.957Z,98.46
2023-01-29T02:08:28.960Z,98.35
2023-01-29T02:08:38.955Z,98.24
2023-01-29T02:08:48.963Z,98.03
2023-01-29T02:08:58.983Z,97.92